createdAt,value
2018-01-30T00:00:19.992Z,0.60
2018-01-30T00:01:26.121Z,0.52
2018-01-30T00:02:32.320Z,0.40
2018-01-30T00:03:38.497Z,0.60
2018-01-30T00:04:44.652Z,0.40
2018-01-30T00:05:50.841Z,0.70
2018-01-30T00:06:56.973Z,0.50
2018-01-30T00:08:03.115Z,0.50
2018-01-30T00:09:09.343Z,0.70
2018-01-30T00:10:15.629Z,0.62
2018-01-30T00:11:21.743Z,0.80
2018-01-30T00:12:27.840Z,0.85
2018-01-30T00:13:34.042Z,0.55
2018-01-30T00:14:40.259Z,0.88
2018-01-30T00:15:46.638Z,1.00
2018-01-30T00:17:02.634Z,0.60
2018-01-30T00:18:08.459Z,1.08
2018-01-30T00:19:20.331Z,0.65
2018-01-30T00:20:26.424Z,0.68
2018-01-30T00:21:32.618Z,0.70
2018-01-30T00:22:38.813Z,0.62
2018-01-30T00:23:44.990Z,0.70
2018-01-30T00:24:51.171Z,1.00
2018-01-30T00:25:57.290Z,0.70
2018-01-30T00:27:08.597Z,0.85
2018-01-30T00:28:14.784Z,0.90
2018-01-30T00:29:20.932Z,0.98
2018-01-30T00:30:26.784Z,1.23
2018-01-30T00:31:32.989Z,0.85
2018-01-30T00:32:39.184Z,0.80
2018-01-30T00:33:45.345Z,1.00
2018-01-30T00:34:51.468Z,0.80
2018-01-30T00:35:57.293Z,0.70
2018-01-30T00:37:03.523Z,0.93
2018-01-30T00:38:09.637Z,0.70
2018-01-30T00:39:15.789Z,0.62
2018-01-30T00:40:22.180Z,0.90
2018-01-30T00:41:28.294Z,0.90
2018-01-30T00:42:34.150Z,0.70
2018-01-30T00:43:39.548Z,0.93
2018-01-30T00:44:45.688Z,1.12
2018-01-30T00:45:51.831Z,1.40
2018-01-30T00:46:57.996Z,0.80
2018-01-30T00:48:03.561Z,1.00
2018-01-30T00:49:09.723Z,1.00
2018-01-30T00:50:16.076Z,0.62
2018-01-30T00:51:22.223Z,0.60
2018-01-30T00:52:28.331Z,1.02
2018-01-30T00:53:34.525Z,0.73
2018-01-30T00:54:40.651Z,0.70
2018-01-30T00:55:46.827Z,0.70
2018-01-30T00:56:52.990Z,0.80
2018-01-30T00:57:59.111Z,0.70
2018-01-30T00:59:05.246Z,0.80
2018-01-30T01:00:11.396Z,0.80
2018-01-30T01:01:17.585Z,1.17
2018-01-30T01:02:23.440Z,0.77
2018-01-30T01:03:29.312Z,0.90
2018-01-30T01:04:35.489Z,0.85
2018-01-30T01:05:41.578Z,0.90
2018-01-30T01:06:47.728Z,0.75
2018-01-30T01:07:54.356Z,0.60
2018-01-30T01:09:00.711Z,0.90
2018-01-30T01:10:06.884Z,1.02
2018-01-30T01:11:13.039Z,0.70
2018-01-30T01:12:19.177Z,0.95
2018-01-30T01:13:25.029Z,1.30
2018-01-30T01:14:31.222Z,0.70
2018-01-30T01:15:37.363Z,0.90
2018-01-30T01:16:43.268Z,0.88
2018-01-30T01:17:49.367Z,1.10
2018-01-30T01:18:55.566Z,0.88
2018-01-30T01:20:02.852Z,1.00
2018-01-30T01:21:09.604Z,0.68
2018-01-30T01:22:15.050Z,0.93
2018-01-30T01:23:21.208Z,1.37
2018-01-30T01:24:27.324Z,0.73
2018-01-30T01:25:33.190Z,1.12
2018-01-30T01:26:39.392Z,0.95
2018-01-30T01:27:46.553Z,1.30
2018-01-30T01:28:52.705Z,0.95
2018-01-30T01:29:58.861Z,1.08
2018-01-30T01:31:04.983Z,1.10
2018-01-30T01:32:11.269Z,0.70
2018-01-30T01:33:17.362Z,1.23
2018-01-30T01:34:23.563Z,1.10
2018-01-30T01:35:29.352Z,0.80
2018-01-30T01:36:35.614Z,0.80
2018-01-30T01:37:42.742Z,0.90
2018-01-30T01:38:48.913Z,0.90
2018-01-30T01:39:55.091Z,0.70
2018-01-30T01:41:01.203Z,0.90
2018-01-30T01:42:07.654Z,1.10
2018-01-30T01:43:14.818Z,0.90
2018-01-30T01:44:31.788Z,1.00
2018-01-30T01:45:37.951Z,0.70
2018-01-30T01:46:44.074Z,0.88
2018-01-30T01:47:50.216Z,1.42
2018-01-30T01:48:56.366Z,0.70
2018-01-30T01:50:02.543Z,1.00
2018-01-30T01:51:08.664Z,0.80
2018-01-30T01:52:14.838Z,1.05
2018-01-30T01:53:21.628Z,0.70
2018-01-30T01:54:33.415Z,0.80
2018-01-30T01:55:39.244Z,0.88
2018-01-30T01:56:45.453Z,0.75
2018-01-30T01:57:51.622Z,1.05
2018-01-30T01:58:57.538Z,0.80
2018-01-30T02:00:03.040Z,0.70
2018-01-30T02:01:08.965Z,0.90
2018-01-30T02:02:15.182Z,0.82
2018-01-30T02:03:21.335Z,0.80
2018-01-30T02:04:27.479Z,0.60
2018-01-30T02:05:33.384Z,0.70
2018-01-30T02:06:39.539Z,1.30
2018-01-30T02:07:45.317Z,0.80
2018-01-30T02:08:51.452Z,0.75
2018-01-30T02:09:57.615Z,0.80
2018-01-30T02:11:03.718Z,0.73
2018-01-30T02:12:09.875Z,1.00
2018-01-30T02:13:19.877Z,0.80
2018-01-30T02:14:26.020Z,0.80
2018-01-30T02:15:32.177Z,0.80
2018-01-30T02:16:38.278Z,0.77
2018-01-30T02:17:49.644Z,0.73
2018-01-30T02:18:55.737Z,0.98
2018-01-30T02:20:01.520Z,0.90
2018-01-30T02:21:07.356Z,0.88
2018-01-30T02:22:13.278Z,0.95
2018-01-30T02:23:19.368Z,0.80
2018-01-30T02:24:25.535Z,0.85
2018-01-30T02:25:31.625Z,0.70
2018-01-30T02:26:38.741Z,0.75
2018-01-30T02:27:44.916Z,0.95
2018-01-30T02:28:52.955Z,1.00
2018-01-30T02:29:59.120Z,0.60
2018-01-30T02:31:05.019Z,0.80
2018-01-30T02:32:11.136Z,0.65
2018-01-30T02:33:17.296Z,0.98
2018-01-30T02:34:23.455Z,1.10
2018-01-30T02:35:29.545Z,0.98
2018-01-30T02:36:35.681Z,0.70
2018-01-30T02:37:41.808Z,1.00
2018-01-30T02:38:47.959Z,1.00
2018-01-30T02:39:54.145Z,0.70
2018-01-30T02:41:00.351Z,0.85
2018-01-30T02:42:06.577Z,1.02
2018-01-30T02:43:12.707Z,0.90
2018-01-30T02:44:18.873Z,1.00
2018-01-30T02:45:24.971Z,0.80
2018-01-30T02:46:31.925Z,0.80
2018-01-30T02:47:38.026Z,1.12
2018-01-30T02:48:45.177Z,1.00
2018-01-30T02:49:57.253Z,0.90
2018-01-30T02:51:03.102Z,1.10
2018-01-30T02:52:09.207Z,1.17
2018-01-30T02:53:15.348Z,1.23
2018-01-30T02:54:21.462Z,1.08
2018-01-30T02:55:27.333Z,0.80
2018-01-30T02:56:33.477Z,1.05
2018-01-30T02:57:40.631Z,1.20
2018-01-30T02:58:46.733Z,1.10
2018-01-30T02:59:52.890Z,1.00
2018-01-30T03:00:59.030Z,0.90
2018-01-30T03:02:04.772Z,0.95
2018-01-30T03:03:11.250Z,0.90
2018-01-30T03:04:17.389Z,1.12
2018-01-30T03:05:23.532Z,1.25
2018-01-30T03:06:29.652Z,1.10
2018-01-30T03:07:35.795Z,1.10
2018-01-30T03:08:41.943Z,1.23
2018-01-30T03:09:48.075Z,0.80
2018-01-30T03:10:54.279Z,0.88
2018-01-30T03:12:00.383Z,0.98
2018-01-30T03:13:06.527Z,0.90
2018-01-30T03:14:12.691Z,0.90
2018-01-30T03:15:18.912Z,0.80
2018-01-30T03:16:25.084Z,1.02
2018-01-30T03:17:31.275Z,1.10
2018-01-30T03:18:37.416Z,1.10
2018-01-30T03:19:43.576Z,0.80
2018-01-30T03:20:49.782Z,1.55
2018-01-30T03:21:55.939Z,1.30
2018-01-30T03:23:02.097Z,1.00
2018-01-30T03:24:08.289Z,1.00
2018-01-30T03:25:14.454Z,1.08
2018-01-30T03:26:20.607Z,0.90
2018-01-30T03:27:26.735Z,0.85
2018-01-30T03:28:36.703Z,1.10
2018-01-30T03:29:42.595Z,1.02
2018-01-30T03:30:48.988Z,1.30
2018-01-30T03:31:55.156Z,1.25
2018-01-30T03:33:01.290Z,0.98
2018-01-30T03:34:07.438Z,0.80
2018-01-30T03:35:13.572Z,0.90
2018-01-30T03:36:19.700Z,0.70
2018-01-30T03:37:25.842Z,1.60
2018-01-30T03:38:31.931Z,1.25
2018-01-30T03:39:38.118Z,1.10
2018-01-30T03:40:52.536Z,0.88
2018-01-30T03:41:58.792Z,1.20
2018-01-30T03:43:04.918Z,1.00
2018-01-30T03:44:11.025Z,1.20
2018-01-30T03:45:17.170Z,1.17
2018-01-30T03:46:23.271Z,0.77
2018-01-30T03:47:29.404Z,0.80
2018-01-30T03:48:35.531Z,0.90
2018-01-30T03:49:41.641Z,1.05
2018-01-30T03:50:47.852Z,1.05
2018-01-30T03:51:53.944Z,0.90
2018-01-30T03:53:00.110Z,0.95
2018-01-30T03:54:06.224Z,1.30
2018-01-30T03:55:12.585Z,0.90
2018-01-30T03:56:18.773Z,0.80
2018-01-30T03:57:24.936Z,0.90
2018-01-30T03:58:30.884Z,1.08
2018-01-30T03:59:37.053Z,0.75
2018-01-30T04:00:43.164Z,1.48
2018-01-30T04:01:49.261Z,0.90
2018-01-30T04:02:56.320Z,0.70
2018-01-30T04:04:02.466Z,0.90
2018-01-30T04:05:08.613Z,1.10
2018-01-30T04:06:14.788Z,0.98
2018-01-30T04:07:21.711Z,0.80
2018-01-30T04:08:27.797Z,0.90
2018-01-30T04:09:33.770Z,0.85
2018-01-30T04:10:39.954Z,1.10
2018-01-30T04:11:47.216Z,0.95
2018-01-30T04:12:53.385Z,0.80
2018-01-30T04:13:59.504Z,0.60
2018-01-30T04:15:05.612Z,1.15
2018-01-30T04:16:12.736Z,0.95
2018-01-30T04:17:19.815Z,1.12
2018-01-30T04:18:25.953Z,0.90
2018-01-30T04:19:32.809Z,0.90
2018-01-30T04:20:38.980Z,1.27
2018-01-30T04:21:45.138Z,1.15
2018-01-30T04:22:51.246Z,0.90
2018-01-30T04:23:57.350Z,0.95
2018-01-30T04:25:03.447Z,1.40
2018-01-30T04:26:09.600Z,1.17
2018-01-30T04:27:16.645Z,1.10
2018-01-30T04:28:22.893Z,1.10
2018-01-30T04:29:28.984Z,1.25
2018-01-30T04:30:35.137Z,1.40
2018-01-30T04:31:41.301Z,1.17
2018-01-30T04:32:47.432Z,1.30
2018-01-30T04:33:53.593Z,1.17
2018-01-30T04:34:59.708Z,1.33
2018-01-30T04:36:05.907Z,1.23
2018-01-30T04:37:12.019Z,1.20
2018-01-30T04:38:17.773Z,0.82
2018-01-30T04:39:23.920Z,1.25
2018-01-30T04:40:33.147Z,1.00
2018-01-30T04:41:39.308Z,1.62
2018-01-30T04:42:45.483Z,1.33
2018-01-30T04:43:51.680Z,1.30
2018-01-30T04:44:57.786Z,1.17
2018-01-30T04:46:03.976Z,1.05
2018-01-30T04:47:10.083Z,0.90
2018-01-30T04:48:16.172Z,1.10
2018-01-30T04:49:22.336Z,1.20
2018-01-30T04:50:28.488Z,1.48
2018-01-30T04:51:34.623Z,1.00
2018-01-30T04:52:40.767Z,1.10
2018-01-30T04:53:46.952Z,1.20
2018-01-30T04:54:53.096Z,1.37
2018-01-30T04:55:59.215Z,0.98
2018-01-30T04:57:05.321Z,1.25
2018-01-30T04:58:11.456Z,1.35
2018-01-30T04:59:17.649Z,1.12
2018-01-30T05:00:23.775Z,1.50
2018-01-30T05:01:29.903Z,1.33
2018-01-30T05:02:36.067Z,1.55
2018-01-30T05:03:42.228Z,1.40
2018-01-30T05:04:48.357Z,1.50
2018-01-30T05:05:54.481Z,1.62
2018-01-30T05:07:02.407Z,1.65
2018-01-30T05:08:08.860Z,1.23
2018-01-30T05:09:15.036Z,1.45
2018-01-30T05:10:21.070Z,1.87
2018-01-30T05:11:27.216Z,2.10
2018-01-30T05:12:32.732Z,1.52
2018-01-30T05:13:38.920Z,1.65
2018-01-30T05:14:45.011Z,1.30
2018-01-30T05:15:52.212Z,1.30
2018-01-30T05:16:58.312Z,1.83
2018-01-30T05:18:04.480Z,1.60
2018-01-30T05:19:10.509Z,1.15
2018-01-30T05:20:16.640Z,1.65
2018-01-30T05:21:22.753Z,1.50
2018-01-30T05:22:29.546Z,1.70
2018-01-30T05:23:36.018Z,2.17
2018-01-30T05:24:42.143Z,1.52
2018-01-30T05:25:47.760Z,1.67
2018-01-30T05:27:00.096Z,1.50
2018-01-30T05:28:06.328Z,1.77
2018-01-30T05:29:12.459Z,1.12
2018-01-30T05:30:18.597Z,1.55
2018-01-30T05:31:25.087Z,1.55
2018-01-30T05:32:31.212Z,1.70
2018-01-30T05:33:37.332Z,1.80
2018-01-30T05:34:43.472Z,2.05
2018-01-30T05:35:51.412Z,1.23
2018-01-30T05:36:58.789Z,1.35
2018-01-30T05:38:04.919Z,1.40
2018-01-30T05:39:11.048Z,1.77
2018-01-30T05:40:17.228Z,1.42
2018-01-30T05:41:23.324Z,1.30
2018-01-30T05:42:29.472Z,1.70
2018-01-30T05:43:35.603Z,1.42
2018-01-30T05:44:41.737Z,1.37
2018-01-30T05:45:47.503Z,1.62
2018-01-30T05:46:53.668Z,1.50
2018-01-30T05:47:59.753Z,1.60
2018-01-30T05:49:05.999Z,1.95
2018-01-30T05:50:12.584Z,1.75
2018-01-30T05:51:20.220Z,1.30
2018-01-30T05:52:26.373Z,1.42
2018-01-30T05:53:32.475Z,1.40
2018-01-30T05:54:38.616Z,1.45
2018-01-30T05:55:44.762Z,1.50
2018-01-30T05:56:50.946Z,1.40
2018-01-30T05:57:57.206Z,1.42
2018-01-30T05:59:03.364Z,1.35
2018-01-30T06:00:08.767Z,1.37
2018-01-30T06:01:15.226Z,1.60
2018-01-30T06:02:21.528Z,1.65
2018-01-30T06:03:27.661Z,1.50
2018-01-30T06:04:34.461Z,1.25
2018-01-30T06:05:41.329Z,1.40
2018-01-30T06:06:47.917Z,2.17
2018-01-30T06:07:54.079Z,1.42
2018-01-30T06:09:00.851Z,1.30
2018-01-30T06:10:08.545Z,1.95
2018-01-30T06:11:14.992Z,1.45
2018-01-30T06:12:21.529Z,1.30
2018-01-30T06:13:27.863Z,1.15
2018-01-30T06:14:34.593Z,2.00
2018-01-30T06:15:40.700Z,2.15
2018-01-30T06:16:46.839Z,1.50
2018-01-30T06:17:52.726Z,1.45
2018-01-30T06:18:59.060Z,1.87
2018-01-30T06:20:04.844Z,1.67
2018-01-30T06:21:11.000Z,1.62
2018-01-30T06:22:17.158Z,1.75
2018-01-30T06:23:23.307Z,1.50
2018-01-30T06:24:29.475Z,1.30
2018-01-30T06:25:35.305Z,1.62
2018-01-30T06:26:46.548Z,1.65
2018-01-30T06:27:52.793Z,2.00
2018-01-30T06:28:58.927Z,1.85
2018-01-30T06:30:04.755Z,2.28
2018-01-30T06:31:10.831Z,2.45
2018-01-30T06:32:16.982Z,1.55
2018-01-30T06:33:23.061Z,1.80
2018-01-30T06:34:29.172Z,2.00
2018-01-30T06:35:36.099Z,1.67
2018-01-30T06:36:42.391Z,1.65
2018-01-30T06:37:48.499Z,1.80
2018-01-30T06:38:54.600Z,1.65
2018-01-30T06:40:00.731Z,1.60
2018-01-30T06:41:07.120Z,1.60
2018-01-30T06:42:13.224Z,2.05
2018-01-30T06:43:19.325Z,2.25
2018-01-30T06:44:25.475Z,1.65
2018-01-30T06:45:31.652Z,3.08
2018-01-30T06:46:37.812Z,1.50
2018-01-30T06:47:44.639Z,2.00
2018-01-30T06:48:51.259Z,1.35
2018-01-30T06:49:57.406Z,1.60
2018-01-30T06:51:03.291Z,1.77
2018-01-30T06:52:09.436Z,1.45
2018-01-30T06:53:15.579Z,2.03
2018-01-30T06:54:21.833Z,1.42
2018-01-30T06:55:27.916Z,1.60
2018-01-30T06:56:34.069Z,2.00
2018-01-30T06:57:40.222Z,1.90
2018-01-30T06:58:47.229Z,1.73
2018-01-30T06:59:53.514Z,1.80
2018-01-30T07:00:59.622Z,1.62
2018-01-30T07:02:05.775Z,2.17
2018-01-30T07:03:11.907Z,1.35
2018-01-30T07:04:18.055Z,1.95
2018-01-30T07:05:23.521Z,1.80
2018-01-30T07:06:29.752Z,1.67
2018-01-30T07:07:36.740Z,1.50
2018-01-30T07:08:42.892Z,1.45
2018-01-30T07:09:48.972Z,1.52
2018-01-30T07:10:54.713Z,1.48
2018-01-30T07:12:00.584Z,1.58
2018-01-30T07:13:06.784Z,2.00
2018-01-30T07:14:12.924Z,1.60
2018-01-30T07:15:19.084Z,1.60
2018-01-30T07:16:25.197Z,2.10
2018-01-30T07:17:30.928Z,1.70
2018-01-30T07:18:37.188Z,1.87
2018-01-30T07:19:43.324Z,1.70
2018-01-30T07:20:49.477Z,1.30
2018-01-30T07:21:55.592Z,1.80
2018-01-30T07:23:01.746Z,1.60
2018-01-30T07:24:07.769Z,1.73
2018-01-30T07:25:13.925Z,2.05
2018-01-30T07:26:20.063Z,1.80
2018-01-30T07:27:26.198Z,1.58
2018-01-30T07:28:32.355Z,1.75
2018-01-30T07:29:38.360Z,1.33
2018-01-30T07:30:44.443Z,1.60
2018-01-30T07:31:50.598Z,1.95
2018-01-30T07:32:56.691Z,1.60
2018-01-30T07:34:02.974Z,2.30
2018-01-30T07:35:09.077Z,1.92
2018-01-30T07:36:15.232Z,1.60
2018-01-30T07:37:21.076Z,1.77
2018-01-30T07:38:27.166Z,2.12
2018-01-30T07:39:33.270Z,2.45
2018-01-30T07:40:39.704Z,1.98
2018-01-30T07:41:45.843Z,1.92
2018-01-30T07:42:51.944Z,1.95
2018-01-30T07:43:58.031Z,2.10
2018-01-30T07:45:04.326Z,1.52
2018-01-30T07:46:10.433Z,1.80
2018-01-30T07:47:16.519Z,2.37
2018-01-30T07:48:22.400Z,1.70
2018-01-30T07:49:28.484Z,2.97
2018-01-30T07:50:34.635Z,1.83
2018-01-30T07:51:40.712Z,1.85
2018-01-30T07:52:46.784Z,1.80
2018-01-30T07:53:52.919Z,2.22
2018-01-30T07:54:59.088Z,1.67
2018-01-30T07:56:05.236Z,1.60
2018-01-30T07:57:11.393Z,1.67
2018-01-30T07:58:16.516Z,1.77
2018-01-30T07:59:22.354Z,1.60
2018-01-30T08:00:28.484Z,2.37
2018-01-30T08:01:34.611Z,2.20
2018-01-30T08:02:40.749Z,1.40
2018-01-30T08:03:46.837Z,1.83
2018-01-30T08:04:52.989Z,1.50
2018-01-30T08:05:59.146Z,2.00
2018-01-30T08:07:05.309Z,1.70
2018-01-30T08:08:11.569Z,1.90
2018-01-30T08:09:17.348Z,1.50
2018-01-30T08:10:23.422Z,2.25
2018-01-30T08:11:29.568Z,1.90
2018-01-30T08:12:35.689Z,1.65
2018-01-30T08:13:41.797Z,1.80
2018-01-30T08:14:47.967Z,1.77
2018-01-30T08:15:54.210Z,1.85
2018-01-30T08:17:00.325Z,2.47
2018-01-30T08:18:06.463Z,1.50
2018-01-30T08:19:12.325Z,1.90
2018-01-30T08:20:18.416Z,1.50
2018-01-30T08:21:24.555Z,1.90
2018-01-30T08:22:30.683Z,1.90
2018-01-30T08:23:36.807Z,1.50
2018-01-30T08:24:42.932Z,1.80
2018-01-30T08:25:49.061Z,1.70
2018-01-30T08:26:55.231Z,1.98
2018-01-30T08:28:01.405Z,2.00
2018-01-30T08:29:07.564Z,2.00
2018-01-30T08:30:13.706Z,1.80
2018-01-30T08:31:19.531Z,2.00
2018-01-30T08:32:25.657Z,2.22
2018-01-30T08:33:31.799Z,1.77
2018-01-30T08:34:37.942Z,1.65
2018-01-30T08:35:44.069Z,2.47
2018-01-30T08:36:50.247Z,1.92
2018-01-30T08:37:56.354Z,1.70
2018-01-30T08:39:02.451Z,1.50
2018-01-30T08:40:08.327Z,1.87
2018-01-30T08:41:14.512Z,1.85
2018-01-30T08:42:20.700Z,2.20
2018-01-30T08:43:26.832Z,2.28
2018-01-30T08:44:32.920Z,1.83
2018-01-30T08:45:39.126Z,2.15
2018-01-30T08:46:45.408Z,1.42
2018-01-30T08:47:51.342Z,2.17
2018-01-30T08:48:57.640Z,2.78
2018-01-30T08:50:04.881Z,1.90
2018-01-30T08:51:10.712Z,1.77
2018-01-30T08:52:17.346Z,2.10
2018-01-30T08:53:23.470Z,2.78
2018-01-30T08:54:29.611Z,1.92
2018-01-30T08:55:35.702Z,2.60
2018-01-30T08:56:41.180Z,1.87
2018-01-30T08:57:47.315Z,1.67
2018-01-30T08:58:53.488Z,1.70
2018-01-30T08:59:59.584Z,1.95
2018-01-30T09:01:05.725Z,2.28
2018-01-30T09:02:11.935Z,1.50
2018-01-30T09:03:18.042Z,1.87
2018-01-30T09:04:24.180Z,1.80
2018-01-30T09:05:30.307Z,2.00
2018-01-30T09:06:36.467Z,1.90
2018-01-30T09:07:42.598Z,1.70
2018-01-30T09:08:48.455Z,2.00
2018-01-30T09:09:54.633Z,1.80
2018-01-30T09:11:01.781Z,1.87
2018-01-30T09:12:07.897Z,1.95
2018-01-30T09:13:14.031Z,1.67
2018-01-30T09:14:20.325Z,1.80
2018-01-30T09:15:26.456Z,1.80
2018-01-30T09:16:32.709Z,2.08
2018-01-30T09:17:38.534Z,1.80
2018-01-30T09:18:44.470Z,2.22
2018-01-30T09:19:50.631Z,2.25
2018-01-30T09:20:57.508Z,2.08
2018-01-30T09:22:03.451Z,1.85
2018-01-30T09:23:09.582Z,2.25
2018-01-30T09:24:15.381Z,1.60
2018-01-30T09:25:25.527Z,1.75
2018-01-30T09:26:31.627Z,2.37
2018-01-30T09:27:38.131Z,1.70
2018-01-30T09:28:44.303Z,1.90
2018-01-30T09:29:50.436Z,1.92
2018-01-30T09:30:56.751Z,1.30
2018-01-30T09:32:03.246Z,2.03
2018-01-30T09:33:09.124Z,1.48
2018-01-30T09:34:15.402Z,1.90
2018-01-30T09:35:21.511Z,1.92
2018-01-30T09:36:31.073Z,1.95
2018-01-30T09:37:37.216Z,2.20
2018-01-30T09:38:49.789Z,1.80
2018-01-30T09:39:55.926Z,1.60
2018-01-30T09:41:02.058Z,3.25
2018-01-30T09:42:08.024Z,1.90
2018-01-30T09:43:14.156Z,2.00
2018-01-30T09:44:20.260Z,1.70
2018-01-30T09:45:26.375Z,1.83
2018-01-30T09:46:32.235Z,3.67
2018-01-30T09:47:38.386Z,1.85
2018-01-30T09:48:44.549Z,1.58
2018-01-30T09:49:50.836Z,1.90
2018-01-30T09:50:56.983Z,2.05
2018-01-30T09:52:03.131Z,1.75
2018-01-30T09:53:09.298Z,1.90
2018-01-30T09:54:15.396Z,2.00
2018-01-30T09:55:21.579Z,1.65
2018-01-30T09:56:27.486Z,1.73
2018-01-30T09:57:33.580Z,1.92
2018-01-30T09:58:39.702Z,1.62
2018-01-30T09:59:45.850Z,1.40
2018-01-30T10:00:52.041Z,2.00
2018-01-30T10:02:02.072Z,1.92
2018-01-30T10:03:08.166Z,2.15
2018-01-30T10:04:14.340Z,1.77
2018-01-30T10:05:20.708Z,2.15
2018-01-30T10:06:26.586Z,1.70
2018-01-30T10:07:32.732Z,1.60
2018-01-30T10:08:38.884Z,1.75
2018-01-30T10:09:45.036Z,1.98
2018-01-30T10:10:51.131Z,1.77
2018-01-30T10:12:04.695Z,1.80
2018-01-30T10:13:11.656Z,2.40
2018-01-30T10:14:18.761Z,1.92
2018-01-30T10:15:24.847Z,1.50
2018-01-30T10:16:30.967Z,1.62
2018-01-30T10:17:37.113Z,2.25
2018-01-30T10:18:43.280Z,2.00
2018-01-30T10:19:49.400Z,1.70
2018-01-30T10:20:55.536Z,1.60
2018-01-30T10:22:01.672Z,2.05
2018-01-30T10:23:07.178Z,3.00
2018-01-30T10:24:13.328Z,2.83
2018-01-30T10:25:19.436Z,3.85
2018-01-30T10:26:27.404Z,3.53
2018-01-30T10:27:33.578Z,4.40
2018-01-30T10:28:39.746Z,4.37
2018-01-30T10:29:45.899Z,6.18
2018-01-30T10:30:52.075Z,5.25
2018-01-30T10:31:58.216Z,3.28
2018-01-30T10:33:04.098Z,2.95
2018-01-30T10:34:10.235Z,2.75
2018-01-30T10:35:16.404Z,2.40
2018-01-30T10:36:22.592Z,5.12
2018-01-30T10:37:28.789Z,2.70
2018-01-30T10:38:34.905Z,2.40
2018-01-30T10:39:41.043Z,2.50
2018-01-30T10:40:47.184Z,2.42
2018-01-30T10:41:53.327Z,2.72
2018-01-30T10:42:59.434Z,2.78
2018-01-30T10:44:05.555Z,2.62
2018-01-30T10:45:11.730Z,1.67
2018-01-30T10:46:17.920Z,2.37
2018-01-30T10:47:24.076Z,1.75
2018-01-30T10:48:30.270Z,2.00
2018-01-30T10:49:36.426Z,1.80
2018-01-30T10:50:41.916Z,2.20
2018-01-30T10:51:48.045Z,2.10
2018-01-30T10:52:54.195Z,1.75
2018-01-30T10:54:00.315Z,1.73
2018-01-30T10:55:06.523Z,2.05
2018-01-30T10:56:11.944Z,2.17
2018-01-30T10:57:17.865Z,2.67
2018-01-30T10:58:24.067Z,1.67
2018-01-30T10:59:30.224Z,1.70
2018-01-30T11:00:36.084Z,1.83
2018-01-30T11:01:42.254Z,2.20
2018-01-30T11:02:48.429Z,1.60
2018-01-30T11:03:54.564Z,1.50
2018-01-30T11:05:00.672Z,2.40
2018-01-30T11:06:06.879Z,2.22
2018-01-30T11:07:13.036Z,1.35
2018-01-30T11:08:19.195Z,1.25
2018-01-30T11:09:24.679Z,1.80
2018-01-30T11:10:30.799Z,2.03
2018-01-30T11:11:36.945Z,5.47
2018-01-30T11:12:43.119Z,6.87
2018-01-30T11:13:49.279Z,11.73
2018-01-30T11:14:55.481Z,6.07
2018-01-30T11:16:05.240Z,3.10
2018-01-30T11:17:13.688Z,3.20
2018-01-30T11:18:19.815Z,2.50
2018-01-30T11:19:26.000Z,1.95
2018-01-30T11:20:32.153Z,1.95
2018-01-30T11:21:38.264Z,1.90
2018-01-30T11:22:44.369Z,1.90
2018-01-30T11:23:50.535Z,1.67
2018-01-30T11:24:56.672Z,1.70
2018-01-30T11:26:02.669Z,1.92
2018-01-30T11:27:08.904Z,1.85
2018-01-30T11:28:15.074Z,2.70
2018-01-30T11:29:21.163Z,1.58
2018-01-30T11:30:27.267Z,1.75
2018-01-30T11:31:32.468Z,1.45
2018-01-30T11:32:38.587Z,1.58
2018-01-30T11:33:45.753Z,1.83
2018-01-30T11:34:51.868Z,1.45
2018-01-30T11:35:57.904Z,1.80
2018-01-30T11:37:04.099Z,1.60
2018-01-30T11:38:10.301Z,1.98
2018-01-30T11:39:15.857Z,1.60
2018-01-30T11:40:21.982Z,1.62
2018-01-30T11:41:28.087Z,1.80
2018-01-30T11:42:34.202Z,1.62
2018-01-30T11:43:39.332Z,1.70
2018-01-30T11:44:45.221Z,1.73
2018-01-30T11:45:51.033Z,1.50
2018-01-30T11:46:57.244Z,1.75
2018-01-30T11:48:03.391Z,1.60
2018-01-30T11:49:09.547Z,2.10
2018-01-30T11:50:15.737Z,1.70
2018-01-30T11:51:21.919Z,2.05
2018-01-30T11:52:28.084Z,1.70
2018-01-30T11:53:33.673Z,1.70
2018-01-30T11:54:39.865Z,1.80
2018-01-30T11:55:45.751Z,1.70
2018-01-30T11:56:51.935Z,2.15
2018-01-30T11:57:58.095Z,1.90
2018-01-30T11:59:04.274Z,2.08
2018-01-30T12:00:10.421Z,1.60
2018-01-30T12:01:16.332Z,1.90
2018-01-30T12:02:22.500Z,1.70
2018-01-30T12:03:28.680Z,2.47
2018-01-30T12:04:34.791Z,1.95
2018-01-30T12:05:40.975Z,1.80
2018-01-30T12:06:47.256Z,1.80
2018-01-30T12:07:54.132Z,1.40
2018-01-30T12:09:00.268Z,1.85
2018-01-30T12:10:06.423Z,1.35
2018-01-30T12:11:12.555Z,1.60
2018-01-30T12:12:18.696Z,1.52
2018-01-30T12:13:24.911Z,1.70
2018-01-30T12:14:30.412Z,1.75
2018-01-30T12:15:37.486Z,1.58
2018-01-30T12:16:44.995Z,1.60
2018-01-30T12:17:51.140Z,1.67
2018-01-30T12:18:57.257Z,1.90
2018-01-30T12:20:03.440Z,1.65
2018-01-30T12:21:09.705Z,2.17
2018-01-30T12:22:15.212Z,1.45
2018-01-30T12:23:21.359Z,1.50
2018-01-30T12:24:27.504Z,1.50
2018-01-30T12:25:33.838Z,1.62
2018-01-30T12:26:39.773Z,1.60
2018-01-30T12:27:45.923Z,2.10
2018-01-30T12:28:52.115Z,1.60
2018-01-30T12:29:58.231Z,1.67
2018-01-30T12:31:04.353Z,1.67
2018-01-30T12:32:10.616Z,1.40
2018-01-30T12:33:16.781Z,1.48
2018-01-30T12:34:22.976Z,1.80
2018-01-30T12:35:29.180Z,1.60
2018-01-30T12:36:35.373Z,1.90
2018-01-30T12:37:41.506Z,1.40
2018-01-30T12:38:47.708Z,1.98
2018-01-30T12:39:53.555Z,1.50
2018-01-30T12:40:59.687Z,1.80
2018-01-30T12:42:06.567Z,1.75
2018-01-30T12:43:13.645Z,1.70
2018-01-30T12:44:19.522Z,1.70
2018-01-30T12:45:25.719Z,1.70
2018-01-30T12:46:31.933Z,2.42
2018-01-30T12:47:38.271Z,1.62
2018-01-30T12:48:44.535Z,1.80
2018-01-30T12:49:50.363Z,1.73
2018-01-30T12:50:55.880Z,1.50
2018-01-30T12:52:02.098Z,2.08
2018-01-30T12:53:08.321Z,2.20
2018-01-30T12:54:14.564Z,1.80
2018-01-30T12:55:20.703Z,1.80
2018-01-30T12:56:26.932Z,1.52
2018-01-30T12:57:33.094Z,1.90
2018-01-30T12:58:39.290Z,1.45
2018-01-30T12:59:45.483Z,1.90
2018-01-30T13:00:51.895Z,1.95
2018-01-30T13:02:06.081Z,2.08
2018-01-30T13:03:12.318Z,1.85
2018-01-30T13:04:18.459Z,2.47
2018-01-30T13:05:24.761Z,1.80
2018-01-30T13:06:30.996Z,2.00
2018-01-30T13:07:37.200Z,2.17
2018-01-30T13:08:43.422Z,1.70
2018-01-30T13:09:49.712Z,1.92
2018-01-30T13:10:59.731Z,1.75
2018-01-30T13:12:05.908Z,2.37
2018-01-30T13:13:12.111Z,1.77
2018-01-30T13:14:18.327Z,1.85
2018-01-30T13:15:24.511Z,2.65
2018-01-30T13:16:30.707Z,1.87
2018-01-30T13:17:36.900Z,1.75
2018-01-30T13:18:43.072Z,2.03
2018-01-30T13:19:49.251Z,1.92
2018-01-30T13:20:55.513Z,1.60
2018-01-30T13:22:01.682Z,1.90
2018-01-30T13:23:07.885Z,2.17
2018-01-30T13:24:14.106Z,2.03
2018-01-30T13:25:19.983Z,1.73
2018-01-30T13:26:26.204Z,2.22
2018-01-30T13:27:32.424Z,1.85
2018-01-30T13:28:39.610Z,2.00
2018-01-30T13:29:45.774Z,2.30
2018-01-30T13:30:51.979Z,1.70
2018-01-30T13:31:58.166Z,1.80
2018-01-30T13:33:04.370Z,2.25
2018-01-30T13:34:10.539Z,1.92
2018-01-30T13:35:16.700Z,1.67
2018-01-30T13:36:22.913Z,1.90
2018-01-30T13:37:29.244Z,2.35
2018-01-30T13:38:35.491Z,1.75
2018-01-30T13:39:41.651Z,2.20
2018-01-30T13:40:47.895Z,2.10
2018-01-30T13:41:54.078Z,2.10
2018-01-30T13:43:00.250Z,2.10
2018-01-30T13:44:06.412Z,2.05
2018-01-30T13:45:12.287Z,2.20
2018-01-30T13:46:18.451Z,1.92
2018-01-30T13:47:24.618Z,2.10
2018-01-30T13:48:30.947Z,2.00
2018-01-30T13:49:37.133Z,1.85
2018-01-30T13:50:43.307Z,1.70
2018-01-30T13:51:49.540Z,2.55
2018-01-30T13:52:55.745Z,2.30
2018-01-30T13:54:01.965Z,2.90
2018-01-30T13:55:08.108Z,3.30
2018-01-30T13:56:14.300Z,3.03
2018-01-30T13:57:19.785Z,2.30
2018-01-30T13:58:25.965Z,1.85
2018-01-30T13:59:32.193Z,2.10
2018-01-30T14:00:38.236Z,2.20
2018-01-30T14:01:44.409Z,1.92
2018-01-30T14:02:50.989Z,2.10
2018-01-30T14:03:57.488Z,2.20
2018-01-30T14:05:03.739Z,2.10
2018-01-30T14:06:10.715Z,2.15
2018-01-30T14:07:17.370Z,1.95
2018-01-30T14:08:23.591Z,2.20
2018-01-30T14:09:30.686Z,2.35
2018-01-30T14:10:37.069Z,2.10
2018-01-30T14:11:43.333Z,1.60
2018-01-30T14:12:49.513Z,2.30
2018-01-30T14:13:55.706Z,2.28
2018-01-30T14:15:02.597Z,2.40
2018-01-30T14:16:08.439Z,2.20
2018-01-30T14:17:14.773Z,2.12
2018-01-30T14:18:21.643Z,2.30
2018-01-30T14:19:27.862Z,2.50
2018-01-30T14:20:33.763Z,2.42
2018-01-30T14:21:39.978Z,2.37
2018-01-30T14:22:46.158Z,2.33
2018-01-30T14:23:52.315Z,2.05
2018-01-30T14:24:58.546Z,2.33
2018-01-30T14:26:04.474Z,2.30
2018-01-30T14:27:10.692Z,2.87
2018-01-30T14:28:16.909Z,2.70
2018-01-30T14:29:23.159Z,2.97
2018-01-30T14:30:36.799Z,2.85
2018-01-30T14:31:43.063Z,2.28
2018-01-30T14:32:49.879Z,2.92
2018-01-30T14:34:05.752Z,2.80
2018-01-30T14:35:23.288Z,2.40
2018-01-30T14:36:29.490Z,4.30
2018-01-30T14:37:35.370Z,9.18
2018-01-30T14:38:41.718Z,2.62
2018-01-30T14:39:47.865Z,2.12
2018-01-30T14:40:54.074Z,2.45
2018-01-30T14:41:59.976Z,1.85
2018-01-30T14:43:06.235Z,2.50